Skip Navigation Links
NOAA logo - Click to go to the NOAA homepage
NOAA's National Weather Service
Alaska Aviation Weather Unit
  NWS logo - Click to go to the NWS homepage
Left Navbar Graphic     23 AKDT = 07 GMT

   
NOAA is celebrating 200 years of science, service, and stewardship. Visit the NOAA 200th celebration Web site to learn more.
USA.gov is the U.S. Government's official Web portal to all Federal, state and local government Web resources and services.
Facebook
NWS on Facebook

Important Change Regarding the AAWU Web Presence

 

Over the last several months, the AAWU has been working to navigate its webpages to a nationally supported server. Security, as well as other needs, have necessitated the change.  In the process, we have made an effort to enhance the functionality of our website, as well as some of our products. As of June 20, 2017, aawu.arh.noaa.gov will be discontinued. The new AAWU web address is weather.gov/aawu. It is now live and will run in-parallel with the old site until it is discontinued. Please send any feedback or questions regarding the new webpages to nws.ar.aawu.webauthors@noaa.gov.  Thank you for your patience during this time of transition.
AAWU Home :: Display TAF Add Bookmark
TAF PAGY 240520Z 2406/2506 21011KT P6SM SCT060
     FM240800 21008KT P6SM SCT050
     FM242000 21016KT P6SM SCT050 BKN200
      AMD LTD TO CLD VIS AND WIND=

METAR PAGY 240153Z AUTO 21019KT 10SM CLR 17/04 A2980 RMK AO2 SLP093 T01670039 TSNO= METAR PAGY 240253Z AUTO 21015KT 10SM CLR 17/03 A2982 RMK AO2 SLP097 T01720028 53012 TSNO= METAR PAGY 240353Z AUTO 21016KT 10SM CLR 17/03 A2984 RMK AO2 SLP105 T01670028 TSNO= METAR PAGY 240453Z AUTO 20011G21KT 10SM CLR 17/03 A2987 RMK AO2 SLP114 T01670028 TSNO= METAR PAGY 240553Z AUTO 21017KT 10SM CLR 16/04 A2990 RMK AO2 SLP126 T01560039 10189 20156 53028 TSNO=
 Alaska TAF Map

NOAA's National Weather Service
Alaska Aviation Weather Unit
6930 Sand Lake Road
Anchorage, AK 99502-1845
Disclaimer
Credits
Glossary
Privacy Policy
About Us
Career Opportunities
Contact AAWU Internet Services Site last modified: April, 17th 2012